GLD1043 MDPP-MYNN
Flight info
| Callsign | GLD1043 |
|---|---|
| Flight time | 1h 35m |
| Altitude | 34000 |
| Route | MALVN3C MALVN Y396 BITAC |
| Aircraft | B738/M-SDE2E3FGHIRWXY/LB1 |
Departure
| Time | 2026-05-05 23:22 |
|---|---|
| Airport | Gregorio Luperon International Airport (MDPP) |
Arrival
| Time | 2026-05-06 00:57 |
|---|---|
| Airport | Lynden Pindling International Airport (MYNN) |
| Time | Latitude | Longitude | Altitude | Speed | Heading |
|---|---|---|---|---|---|
| 2026-05-05 22:33 | 19.75610 | -70.56485 | 34 ft | 0 kts | 163° |
| 2026-05-05 23:12 | 19.75613 | -70.56486 | 34 ft | 3 kts | 163° |
| 2026-05-05 23:13 | 19.75635 | -70.56493 | 34 ft | 4 kts | 165° |
| 2026-05-05 23:13 | 19.75658 | -70.56497 | 30 ft | 4 kts | 185° |
| 2026-05-05 23:13 | 19.75679 | -70.56491 | 32 ft | 4 kts | 221° |
| 2026-05-05 23:13 | 19.75689 | -70.56478 | 34 ft | 0 kts | 252° |
| 2026-05-05 23:16 | 19.75684 | -70.56494 | 32 ft | 6 kts | 252° |
| 2026-05-05 23:16 | 19.75664 | -70.56559 | 34 ft | 12 kts | 252° |
| 2026-05-05 23:17 | 19.75634 | -70.56659 | 34 ft | 15 kts | 252° |
| 2026-05-05 23:17 | 19.75602 | -70.56774 | 34 ft | 15 kts | 252° |
| 2026-05-05 23:17 | 19.75572 | -70.56872 | 34 ft | 12 kts | 252° |
| 2026-05-05 23:17 | 19.75547 | -70.56956 | 33 ft | 12 kts | 252° |
| 2026-05-05 23:18 | 19.75533 | -70.57035 | 33 ft | 11 kts | 284° |
| 2026-05-05 23:18 | 19.75579 | -70.57099 | 33 ft | 12 kts | 311° |
| 2026-05-05 23:18 | 19.75637 | -70.57166 | 33 ft | 13 kts | 314° |
| 2026-05-05 23:18 | 19.75698 | -70.57241 | 32 ft | 14 kts | 292° |
| 2026-05-05 23:19 | 19.75690 | -70.57335 | 32 ft | 13 kts | 252° |
| 2026-05-05 23:19 | 19.75662 | -70.57430 | 32 ft | 14 kts | 253° |
| 2026-05-05 23:19 | 19.75630 | -70.57541 | 31 ft | 18 kts | 253° |
| 2026-05-05 23:19 | 19.75590 | -70.57678 | 32 ft | 20 kts | 253° |
| 2026-05-05 23:20 | 19.75549 | -70.57822 | 34 ft | 21 kts | 253° |
| 2026-05-05 23:20 | 19.75506 | -70.57970 | 35 ft | 21 kts | 251° |
| 2026-05-05 23:20 | 19.75462 | -70.58115 | 36 ft | 20 kts | 252° |
| 2026-05-05 23:20 | 19.75424 | -70.58256 | 35 ft | 18 kts | 253° |
| 2026-05-05 23:21 | 19.75379 | -70.58352 | 35 ft | 10 kts | 213° |
| 2026-05-05 23:21 | 19.75391 | -70.58382 | 35 ft | 5 kts | 51° |
| 2026-05-05 23:21 | 19.75416 | -70.58286 | 35 ft | 38 kts | 75° |
| 2026-05-05 23:21 | 19.75563 | -70.57770 | 34 ft | 105 kts | 73° |
| 2026-05-05 23:22 | 19.75839 | -70.56841 | 96 ft | 151 kts | 74° |
| 2026-05-05 23:22 | 19.76158 | -70.55781 | 722 ft | 148 kts | 72° |
| 2026-05-05 23:22 | 19.76479 | -70.54716 | 1347 ft | 154 kts | 77° |
| 2026-05-05 23:22 | 19.76809 | -70.53608 | 1873 ft | 165 kts | 81° |
| 2026-05-05 23:23 | 19.77153 | -70.52332 | 2098 ft | 194 kts | 80° |
| 2026-05-05 23:23 | 19.77776 | -70.50957 | 2246 ft | 227 kts | 50° |
| 2026-05-05 23:23 | 19.79272 | -70.50189 | 2413 ft | 259 kts | 8° |
| 2026-05-05 23:23 | 19.81121 | -70.50558 | 2664 ft | 284 kts | 333° |
| 2026-05-05 23:24 | 19.82955 | -70.51314 | 3378 ft | 285 kts | 356° |
| 2026-05-05 23:24 | 19.84853 | -70.50949 | 4118 ft | 277 kts | 32° |
| 2026-05-05 23:24 | 19.86457 | -70.49803 | 4762 ft | 281 kts | 34° |
| 2026-05-05 23:24 | 19.88196 | -70.48853 | 5488 ft | 281 kts | 24° |
| 2026-05-05 23:25 | 19.89992 | -70.48120 | 5850 ft | 278 kts | 19° |
| 2026-05-05 23:25 | 19.91850 | -70.47474 | 6004 ft | 284 kts | 15° |
| 2026-05-05 23:25 | 19.93813 | -70.47207 | 6422 ft | 286 kts | 0° |
| 2026-05-05 23:25 | 19.95798 | -70.47156 | 7155 ft | 286 kts | 0° |
| 2026-05-05 23:26 | 19.97771 | -70.47461 | 7757 ft | 291 kts | 336° |
| 2026-05-05 23:26 | 19.99423 | -70.48698 | 8375 ft | 295 kts | 309° |
| 2026-05-05 23:26 | 20.00375 | -70.50613 | 9024 ft | 296 kts | 281° |
| 2026-05-05 23:26 | 20.00610 | -70.52782 | 9725 ft | 297 kts | 270° |
| 2026-05-05 23:27 | 20.00679 | -70.54993 | 10344 ft | 304 kts | 269° |
| 2026-05-05 23:27 | 20.00722 | -70.57335 | 10535 ft | 327 kts | 270° |
| 2026-05-05 23:27 | 20.00766 | -70.59833 | 10694 ft | 348 kts | 270° |
| 2026-05-05 23:27 | 20.00821 | -70.62475 | 10837 ft | 367 kts | 270° |
| 2026-05-05 23:28 | 20.00886 | -70.65234 | 11155 ft | 378 kts | 270° |
| 2026-05-05 23:28 | 20.00960 | -70.68040 | 11684 ft | 381 kts | 270° |
| 2026-05-05 23:28 | 20.01037 | -70.70818 | 12328 ft | 380 kts | 271° |
| 2026-05-05 23:28 | 20.01117 | -70.73628 | 12988 ft | 381 kts | 271° |
| 2026-05-05 23:29 | 20.01198 | -70.76458 | 13579 ft | 383 kts | 271° |
| 2026-05-05 23:29 | 20.01278 | -70.79276 | 14374 ft | 378 kts | 271° |
| 2026-05-05 23:29 | 20.01358 | -70.82073 | 15005 ft | 378 kts | 271° |
| 2026-05-05 23:29 | 20.01437 | -70.84886 | 15544 ft | 382 kts | 271° |
| 2026-05-05 23:30 | 20.01516 | -70.87740 | 15947 ft | 388 kts | 271° |
| 2026-05-05 23:30 | 20.01569 | -70.89641 | 16273 ft | 391 kts | 271° |
| 2026-05-05 23:30 | 20.01677 | -70.93553 | 16853 ft | 398 kts | 271° |
| 2026-05-05 23:30 | 20.01757 | -70.96499 | 17403 ft | 399 kts | 271° |
| 2026-05-05 23:31 | 20.01838 | -70.99454 | 17954 ft | 401 kts | 271° |
| 2026-05-05 23:31 | 20.01892 | -71.01422 | 18292 ft | 402 kts | 271° |
| 2026-05-05 23:31 | 20.01972 | -71.04406 | 18734 ft | 405 kts | 271° |
| 2026-05-05 23:31 | 20.02053 | -71.07411 | 19161 ft | 407 kts | 271° |
| 2026-05-05 23:32 | 20.02240 | -71.10424 | 19552 ft | 410 kts | 281° |
| 2026-05-05 23:32 | 20.03239 | -71.13263 | 19959 ft | 414 kts | 299° |
| 2026-05-05 23:32 | 20.04970 | -71.15726 | 20417 ft | 418 kts | 313° |
| 2026-05-05 23:32 | 20.07245 | -71.17609 | 20829 ft | 422 kts | 326° |
| 2026-05-05 23:33 | 20.09782 | -71.19223 | 21256 ft | 425 kts | 328° |
| 2026-05-05 23:33 | 20.12348 | -71.20796 | 21670 ft | 427 kts | 328° |
| 2026-05-05 23:33 | 20.14923 | -71.22370 | 22101 ft | 427 kts | 328° |
| 2026-05-05 23:33 | 20.17504 | -71.23965 | 22491 ft | 429 kts | 327° |
| 2026-05-05 23:34 | 20.20093 | -71.25583 | 22858 ft | 431 kts | 327° |
| 2026-05-05 23:34 | 20.22689 | -71.27221 | 23225 ft | 433 kts | 327° |
| 2026-05-05 23:34 | 20.25285 | -71.28866 | 23580 ft | 435 kts | 327° |
| 2026-05-05 23:34 | 20.27888 | -71.30519 | 23888 ft | 437 kts | 327° |
| 2026-05-05 23:35 | 20.30505 | -71.32183 | 24200 ft | 438 kts | 327° |
| 2026-05-05 23:35 | 20.33128 | -71.33849 | 24508 ft | 439 kts | 327° |
| 2026-05-05 23:35 | 20.35719 | -71.35496 | 24804 ft | 440 kts | 327° |
| 2026-05-05 23:35 | 20.38353 | -71.37170 | 25092 ft | 441 kts | 327° |
| 2026-05-05 23:36 | 20.40976 | -71.38880 | 25365 ft | 441 kts | 323° |
| 2026-05-05 23:36 | 20.43218 | -71.41092 | 25608 ft | 439 kts | 307° |
| 2026-05-05 23:36 | 20.45076 | -71.43678 | 25930 ft | 439 kts | 306° |
| 2026-05-05 23:36 | 20.46944 | -71.46255 | 26198 ft | 440 kts | 307° |
| 2026-05-05 23:37 | 20.48839 | -71.48841 | 26446 ft | 442 kts | 307° |
| 2026-05-05 23:37 | 20.50742 | -71.51418 | 26691 ft | 443 kts | 307° |
| 2026-05-05 23:37 | 20.52660 | -71.54002 | 26946 ft | 444 kts | 307° |
| 2026-05-05 23:37 | 20.54582 | -71.56586 | 27201 ft | 445 kts | 307° |
| 2026-05-05 23:38 | 20.56510 | -71.59177 | 27505 ft | 445 kts | 307° |
| 2026-05-05 23:38 | 20.58431 | -71.61758 | 27785 ft | 445 kts | 307° |
| 2026-05-05 23:38 | 20.60360 | -71.64350 | 28045 ft | 445 kts | 307° |
| 2026-05-05 23:38 | 20.62282 | -71.66937 | 28377 ft | 444 kts | 307° |
| 2026-05-05 23:39 | 20.64173 | -71.69482 | 28763 ft | 441 kts | 307° |
| 2026-05-05 23:39 | 20.66077 | -71.72047 | 29174 ft | 439 kts | 307° |
| 2026-05-05 23:39 | 20.67969 | -71.74595 | 29552 ft | 437 kts | 307° |
| 2026-05-05 23:39 | 20.69861 | -71.77147 | 29913 ft | 436 kts | 307° |
| 2026-05-05 23:40 | 20.71744 | -71.79687 | 30263 ft | 435 kts | 307° |
| 2026-05-05 23:40 | 20.73619 | -71.82218 | 30555 ft | 434 kts | 307° |
| 2026-05-05 23:40 | 20.75496 | -71.84753 | 30797 ft | 435 kts | 307° |
| 2026-05-05 23:40 | 20.77353 | -71.87262 | 31032 ft | 436 kts | 307° |
| 2026-05-05 23:41 | 20.79236 | -71.89807 | 31321 ft | 436 kts | 307° |
| 2026-05-05 23:41 | 20.81113 | -71.92345 | 31631 ft | 435 kts | 308° |
| 2026-05-05 23:41 | 20.82987 | -71.94880 | 31986 ft | 433 kts | 308° |
| 2026-05-05 23:41 | 20.84852 | -71.97404 | 32347 ft | 432 kts | 308° |
| 2026-05-05 23:42 | 20.86713 | -71.99922 | 32632 ft | 432 kts | 308° |
| 2026-05-05 23:42 | 20.88574 | -72.02444 | 32897 ft | 432 kts | 308° |
| 2026-05-05 23:42 | 20.90438 | -72.04969 | 33197 ft | 432 kts | 308° |
| 2026-05-05 23:42 | 20.92300 | -72.07493 | 33517 ft | 431 kts | 309° |
| 2026-05-05 23:43 | 20.94155 | -72.10009 | 33835 ft | 431 kts | 309° |
| 2026-05-05 23:43 | 20.96012 | -72.12529 | 34038 ft | 432 kts | 309° |
| 2026-05-05 23:43 | 20.99729 | -72.17577 | 34031 ft | 433 kts | 309° |
| 2026-05-05 23:44 | 21.03443 | -72.22625 | 34033 ft | 430 kts | 309° |
| 2026-05-05 23:44 | 21.07130 | -72.27641 | 34035 ft | 427 kts | 310° |
| 2026-05-05 23:45 | 21.10802 | -72.32640 | 34028 ft | 425 kts | 310° |
| 2026-05-05 23:45 | 21.14426 | -72.37578 | 34035 ft | 423 kts | 310° |
| 2026-05-05 23:46 | 21.18058 | -72.42532 | 34039 ft | 423 kts | 310° |
| 2026-05-05 23:46 | 21.21694 | -72.47495 | 34046 ft | 422 kts | 310° |
| 2026-05-05 23:47 | 21.25320 | -72.52449 | 34038 ft | 422 kts | 310° |
| 2026-05-05 23:47 | 21.28926 | -72.57381 | 34041 ft | 422 kts | 310° |
| 2026-05-05 23:48 | 21.32550 | -72.62342 | 34042 ft | 421 kts | 310° |
| 2026-05-05 23:48 | 21.36161 | -72.67289 | 34039 ft | 421 kts | 310° |
| 2026-05-05 23:49 | 21.39756 | -72.72218 | 34041 ft | 420 kts | 310° |
| 2026-05-05 23:49 | 21.43358 | -72.77161 | 34040 ft | 420 kts | 310° |
| 2026-05-05 23:50 | 21.46957 | -72.82105 | 34041 ft | 420 kts | 310° |
| 2026-05-05 23:50 | 21.50555 | -72.87053 | 34042 ft | 420 kts | 310° |
| 2026-05-05 23:51 | 21.54148 | -72.91997 | 34041 ft | 419 kts | 310° |
| 2026-05-05 23:51 | 21.57737 | -72.96940 | 34054 ft | 419 kts | 310° |
| 2026-05-05 23:52 | 21.61298 | -73.01850 | 34041 ft | 418 kts | 310° |
| 2026-05-05 23:52 | 21.64872 | -73.06781 | 34042 ft | 417 kts | 310° |
| 2026-05-05 23:53 | 21.68433 | -73.11700 | 34042 ft | 416 kts | 310° |
| 2026-05-05 23:53 | 21.71987 | -73.16612 | 34046 ft | 415 kts | 310° |
| 2026-05-05 23:54 | 21.75534 | -73.21520 | 34047 ft | 415 kts | 310° |
| 2026-05-05 23:54 | 21.79049 | -73.26388 | 34047 ft | 414 kts | 310° |
| 2026-05-05 23:55 | 21.82588 | -73.31292 | 34049 ft | 414 kts | 310° |
| 2026-05-05 23:55 | 21.86120 | -73.36193 | 34047 ft | 414 kts | 310° |
| 2026-05-05 23:56 | 21.89648 | -73.41091 | 34048 ft | 414 kts | 310° |
| 2026-05-05 23:56 | 21.93176 | -73.45994 | 34064 ft | 414 kts | 310° |
| 2026-05-05 23:57 | 21.96702 | -73.50899 | 34055 ft | 414 kts | 310° |
| 2026-05-05 23:57 | 22.00227 | -73.55807 | 34048 ft | 414 kts | 310° |
| 2026-05-05 23:58 | 22.03746 | -73.60712 | 34046 ft | 414 kts | 310° |
| 2026-05-05 23:58 | 22.07241 | -73.65587 | 34046 ft | 413 kts | 310° |
| 2026-05-05 23:59 | 22.10764 | -73.70505 | 34048 ft | 413 kts | 310° |
| 2026-05-05 23:59 | 22.14284 | -73.75424 | 34050 ft | 414 kts | 310° |
| 2026-05-06 00:00 | 22.17801 | -73.80343 | 34054 ft | 414 kts | 310° |
| 2026-05-06 00:00 | 22.21300 | -73.85242 | 34052 ft | 414 kts | 310° |
| 2026-05-06 00:01 | 22.24821 | -73.90177 | 34049 ft | 415 kts | 310° |
| 2026-05-06 00:01 | 22.28349 | -73.95125 | 34050 ft | 415 kts | 310° |
| 2026-05-06 00:02 | 22.31868 | -74.00066 | 34059 ft | 416 kts | 310° |
| 2026-05-06 00:02 | 22.35379 | -74.04998 | 34044 ft | 416 kts | 309° |
| 2026-05-06 00:03 | 22.38912 | -74.09968 | 34051 ft | 417 kts | 309° |
| 2026-05-06 00:03 | 22.42446 | -74.14944 | 34049 ft | 417 kts | 309° |
| 2026-05-06 00:04 | 22.45984 | -74.19929 | 34052 ft | 418 kts | 309° |
| 2026-05-06 00:04 | 22.49523 | -74.24921 | 34052 ft | 418 kts | 309° |
| 2026-05-06 00:05 | 22.54819 | -74.32401 | 34052 ft | 418 kts | 309° |
| 2026-05-06 00:06 | 22.58358 | -74.37404 | 34041 ft | 419 kts | 309° |
| 2026-05-06 00:06 | 22.61899 | -74.42415 | 34049 ft | 419 kts | 309° |
| 2026-05-06 00:07 | 22.65437 | -74.47427 | 34046 ft | 419 kts | 309° |
| 2026-05-06 00:07 | 22.68976 | -74.52446 | 34056 ft | 419 kts | 308° |
| 2026-05-06 00:08 | 22.72517 | -74.57472 | 34045 ft | 419 kts | 308° |
| 2026-05-06 00:08 | 22.76049 | -74.62490 | 34049 ft | 418 kts | 308° |
| 2026-05-06 00:09 | 22.79556 | -74.67477 | 34051 ft | 418 kts | 308° |
| 2026-05-06 00:09 | 22.83078 | -74.72491 | 34051 ft | 418 kts | 308° |
| 2026-05-06 00:10 | 22.86595 | -74.77502 | 34054 ft | 417 kts | 308° |
| 2026-05-06 00:10 | 22.90108 | -74.82511 | 34051 ft | 417 kts | 308° |
| 2026-05-06 00:11 | 22.93620 | -74.87526 | 34047 ft | 417 kts | 308° |
| 2026-05-06 00:11 | 22.97104 | -74.92503 | 34049 ft | 416 kts | 308° |
| 2026-05-06 00:12 | 23.00611 | -74.97521 | 34052 ft | 416 kts | 308° |
| 2026-05-06 00:12 | 23.04112 | -75.02534 | 34066 ft | 417 kts | 308° |
| 2026-05-06 00:13 | 23.07616 | -75.07555 | 34041 ft | 416 kts | 308° |
| 2026-05-06 00:13 | 23.11109 | -75.12565 | 34053 ft | 415 kts | 308° |
| 2026-05-06 00:14 | 23.14574 | -75.17539 | 34051 ft | 415 kts | 308° |
| 2026-05-06 00:14 | 23.18052 | -75.22538 | 34052 ft | 415 kts | 308° |
| 2026-05-06 00:15 | 23.21532 | -75.27545 | 34049 ft | 414 kts | 308° |
| 2026-05-06 00:15 | 23.25012 | -75.32557 | 34052 ft | 414 kts | 308° |
| 2026-05-06 00:16 | 23.28483 | -75.37561 | 34054 ft | 414 kts | 308° |
| 2026-05-06 00:16 | 23.31927 | -75.42532 | 34051 ft | 414 kts | 308° |
| 2026-05-06 00:17 | 23.35396 | -75.47543 | 34049 ft | 414 kts | 308° |
| 2026-05-06 00:17 | 23.38859 | -75.52551 | 34066 ft | 414 kts | 308° |
| 2026-05-06 00:18 | 23.42323 | -75.57564 | 34059 ft | 414 kts | 308° |
| 2026-05-06 00:18 | 23.45784 | -75.62579 | 34049 ft | 414 kts | 308° |
| 2026-05-06 00:19 | 23.49243 | -75.67595 | 34045 ft | 413 kts | 308° |
| 2026-05-06 00:19 | 23.52693 | -75.72604 | 34052 ft | 413 kts | 308° |
| 2026-05-06 00:20 | 23.55555 | -75.76762 | 34048 ft | 413 kts | 308° |
| 2026-05-06 00:20 | 23.59000 | -75.81772 | 34049 ft | 412 kts | 308° |
| 2026-05-06 00:21 | 23.62439 | -75.86779 | 34044 ft | 412 kts | 308° |
| 2026-05-06 00:21 | 23.65856 | -75.91758 | 34047 ft | 412 kts | 308° |
| 2026-05-06 00:22 | 23.69291 | -75.96769 | 34046 ft | 412 kts | 308° |
| 2026-05-06 00:22 | 23.72726 | -76.01784 | 34047 ft | 412 kts | 308° |
| 2026-05-06 00:23 | 23.76159 | -76.06802 | 34058 ft | 412 kts | 307° |
| 2026-05-06 00:23 | 23.79568 | -76.11790 | 34041 ft | 412 kts | 307° |
| 2026-05-06 00:24 | 23.82996 | -76.16810 | 34044 ft | 412 kts | 307° |
| 2026-05-06 00:24 | 23.86420 | -76.21829 | 34041 ft | 412 kts | 307° |
| 2026-05-06 00:25 | 23.89842 | -76.26852 | 34046 ft | 411 kts | 307° |
| 2026-05-06 00:25 | 23.93262 | -76.31875 | 34044 ft | 411 kts | 307° |
| 2026-05-06 00:26 | 23.96655 | -76.36864 | 34041 ft | 411 kts | 307° |
| 2026-05-06 00:26 | 24.00068 | -76.41888 | 34038 ft | 411 kts | 307° |
| 2026-05-06 00:27 | 24.03493 | -76.46935 | 33539 ft | 417 kts | 307° |
| 2026-05-06 00:27 | 24.05220 | -76.49481 | 32890 ft | 414 kts | 307° |
| 2026-05-06 00:27 | 24.06937 | -76.52013 | 32167 ft | 414 kts | 307° |
| 2026-05-06 00:27 | 24.08632 | -76.54515 | 31411 ft | 415 kts | 306° |
| 2026-05-06 00:28 | 24.10357 | -76.57062 | 30624 ft | 416 kts | 306° |
| 2026-05-06 00:28 | 24.12085 | -76.59615 | 29850 ft | 418 kts | 306° |
| 2026-05-06 00:28 | 24.13804 | -76.62157 | 29166 ft | 414 kts | 306° |
| 2026-05-06 00:28 | 24.15507 | -76.64675 | 28554 ft | 409 kts | 306° |
| 2026-05-06 00:29 | 24.17190 | -76.67166 | 27952 ft | 405 kts | 306° |
| 2026-05-06 00:29 | 24.18857 | -76.69635 | 27366 ft | 401 kts | 306° |
| 2026-05-06 00:29 | 24.20507 | -76.72078 | 26812 ft | 397 kts | 306° |
| 2026-05-06 00:29 | 24.22125 | -76.74475 | 26556 ft | 386 kts | 306° |
| 2026-05-06 00:30 | 24.23726 | -76.76850 | 26079 ft | 395 kts | 305° |
| 2026-05-06 00:30 | 24.25386 | -76.79313 | 25545 ft | 405 kts | 305° |
| 2026-05-06 00:30 | 24.27041 | -76.81772 | 24966 ft | 403 kts | 305° |
| 2026-05-06 00:30 | 24.28722 | -76.84267 | 24364 ft | 400 kts | 305° |
| 2026-05-06 00:31 | 24.30370 | -76.86715 | 23768 ft | 397 kts | 305° |
| 2026-05-06 00:31 | 24.31988 | -76.89119 | 23123 ft | 395 kts | 305° |
| 2026-05-06 00:31 | 24.33607 | -76.91527 | 22514 ft | 391 kts | 305° |
| 2026-05-06 00:31 | 24.35219 | -76.93925 | 21922 ft | 387 kts | 305° |
| 2026-05-06 00:32 | 24.36808 | -76.96290 | 21357 ft | 383 kts | 305° |
| 2026-05-06 00:32 | 24.38383 | -76.98635 | 20801 ft | 380 kts | 305° |
| 2026-05-06 00:32 | 24.39945 | -77.00963 | 20252 ft | 377 kts | 305° |
| 2026-05-06 00:32 | 24.41500 | -77.03282 | 19697 ft | 375 kts | 305° |
| 2026-05-06 00:33 | 24.43042 | -77.05582 | 19139 ft | 374 kts | 305° |
| 2026-05-06 00:33 | 24.44581 | -77.07878 | 18589 ft | 373 kts | 305° |
| 2026-05-06 00:33 | 24.46116 | -77.10171 | 18004 ft | 372 kts | 305° |
| 2026-05-06 00:33 | 24.47645 | -77.12454 | 17415 ft | 370 kts | 305° |
| 2026-05-06 00:34 | 24.49164 | -77.14722 | 16856 ft | 367 kts | 305° |
| 2026-05-06 00:34 | 24.50670 | -77.16974 | 16299 ft | 363 kts | 305° |
| 2026-05-06 00:34 | 24.52136 | -77.19164 | 15768 ft | 350 kts | 304° |
| 2026-05-06 00:34 | 24.53552 | -77.21282 | 15271 ft | 338 kts | 304° |
| 2026-05-06 00:35 | 24.54923 | -77.23333 | 14794 ft | 328 kts | 304° |
| 2026-05-06 00:35 | 24.56252 | -77.25323 | 14396 ft | 317 kts | 304° |
| 2026-05-06 00:35 | 24.57539 | -77.27250 | 14198 ft | 310 kts | 304° |
| 2026-05-06 00:35 | 24.58783 | -77.29114 | 14010 ft | 302 kts | 304° |
| 2026-05-06 00:36 | 24.60017 | -77.30966 | 13697 ft | 299 kts | 304° |
| 2026-05-06 00:36 | 24.61237 | -77.32797 | 13343 ft | 292 kts | 304° |
| 2026-05-06 00:36 | 24.62416 | -77.34566 | 13010 ft | 282 kts | 303° |
| 2026-05-06 00:36 | 24.63558 | -77.36279 | 12702 ft | 273 kts | 303° |
| 2026-05-06 00:37 | 24.64661 | -77.37936 | 12399 ft | 264 kts | 303° |
| 2026-05-06 00:37 | 24.65731 | -77.39543 | 12112 ft | 256 kts | 303° |
| 2026-05-06 00:37 | 24.66769 | -77.41103 | 11828 ft | 249 kts | 303° |
| 2026-05-06 00:37 | 24.67776 | -77.42617 | 11552 ft | 242 kts | 303° |
| 2026-05-06 00:38 | 24.68746 | -77.44077 | 11299 ft | 238 kts | 303° |
| 2026-05-06 00:38 | 24.69720 | -77.45544 | 11043 ft | 237 kts | 303° |
| 2026-05-06 00:38 | 24.70694 | -77.47011 | 10784 ft | 237 kts | 303° |
| 2026-05-06 00:38 | 24.71666 | -77.48475 | 10518 ft | 237 kts | 303° |
| 2026-05-06 00:39 | 24.72642 | -77.49943 | 10264 ft | 237 kts | 303° |
| 2026-05-06 00:39 | 24.73603 | -77.51389 | 10137 ft | 232 kts | 303° |
| 2026-05-06 00:39 | 24.74549 | -77.52813 | 10011 ft | 229 kts | 303° |
| 2026-05-06 00:39 | 24.75709 | -77.54056 | 9750 ft | 239 kts | 326° |
| 2026-05-06 00:40 | 24.77284 | -77.54704 | 9548 ft | 245 kts | 340° |
| 2026-05-06 00:40 | 24.78945 | -77.55187 | 9267 ft | 248 kts | 341° |
| 2026-05-06 00:40 | 24.80593 | -77.55652 | 9005 ft | 247 kts | 341° |
| 2026-05-06 00:40 | 24.82256 | -77.56115 | 8754 ft | 246 kts | 341° |
| 2026-05-06 00:41 | 24.83918 | -77.56573 | 8480 ft | 243 kts | 341° |
| 2026-05-06 00:41 | 24.85550 | -77.57020 | 8225 ft | 240 kts | 341° |
| 2026-05-06 00:41 | 24.87172 | -77.57468 | 7975 ft | 239 kts | 341° |
| 2026-05-06 00:41 | 24.88785 | -77.57918 | 7729 ft | 239 kts | 341° |
| 2026-05-06 00:42 | 24.90393 | -77.58371 | 7483 ft | 238 kts | 341° |
| 2026-05-06 00:42 | 24.91997 | -77.58827 | 7230 ft | 238 kts | 341° |
| 2026-05-06 00:42 | 24.93600 | -77.59289 | 6990 ft | 238 kts | 341° |
| 2026-05-06 00:42 | 24.95177 | -77.59743 | 6752 ft | 237 kts | 341° |
| 2026-05-06 00:43 | 24.96774 | -77.60203 | 6499 ft | 236 kts | 341° |
| 2026-05-06 00:43 | 24.98362 | -77.60661 | 6239 ft | 235 kts | 341° |
| 2026-05-06 00:43 | 24.99943 | -77.61124 | 5982 ft | 235 kts | 341° |
| 2026-05-06 00:43 | 25.01523 | -77.61593 | 5731 ft | 234 kts | 341° |
| 2026-05-06 00:44 | 25.03095 | -77.62069 | 5485 ft | 233 kts | 341° |
| 2026-05-06 00:44 | 25.04655 | -77.62550 | 5246 ft | 233 kts | 341° |
| 2026-05-06 00:44 | 25.06207 | -77.63037 | 5011 ft | 232 kts | 341° |
| 2026-05-06 00:44 | 25.07744 | -77.63556 | 4771 ft | 230 kts | 334° |
| 2026-05-06 00:45 | 25.09058 | -77.64499 | 4620 ft | 221 kts | 321° |
| 2026-05-06 00:45 | 25.10276 | -77.65514 | 4407 ft | 223 kts | 321° |
| 2026-05-06 00:45 | 25.11525 | -77.66549 | 4199 ft | 225 kts | 321° |
| 2026-05-06 00:45 | 25.12797 | -77.67601 | 3915 ft | 230 kts | 321° |
| 2026-05-06 00:46 | 25.14059 | -77.68651 | 3787 ft | 224 kts | 321° |
| 2026-05-06 00:46 | 25.15280 | -77.69668 | 3725 ft | 214 kts | 321° |
| 2026-05-06 00:46 | 25.16421 | -77.70619 | 3737 ft | 198 kts | 321° |
| 2026-05-06 00:46 | 25.17496 | -77.71511 | 3735 ft | 190 kts | 321° |
| 2026-05-06 00:47 | 25.18549 | -77.72385 | 3735 ft | 189 kts | 321° |
| 2026-05-06 00:47 | 25.19594 | -77.73252 | 3738 ft | 190 kts | 321° |
| 2026-05-06 00:47 | 25.20653 | -77.74131 | 3738 ft | 190 kts | 321° |
| 2026-05-06 00:47 | 25.21711 | -77.75008 | 3741 ft | 190 kts | 321° |
| 2026-05-06 00:48 | 25.22767 | -77.75885 | 3749 ft | 189 kts | 321° |
| 2026-05-06 00:48 | 25.23820 | -77.76760 | 3751 ft | 189 kts | 321° |
| 2026-05-06 00:48 | 25.24873 | -77.77635 | 3743 ft | 189 kts | 321° |
| 2026-05-06 00:48 | 25.25927 | -77.78509 | 3746 ft | 189 kts | 321° |
| 2026-05-06 00:49 | 25.26998 | -77.79363 | 3737 ft | 190 kts | 330° |
| 2026-05-06 00:49 | 25.28288 | -77.79620 | 3719 ft | 193 kts | 9° |
| 2026-05-06 00:49 | 25.29442 | -77.78925 | 3716 ft | 196 kts | 48° |
| 2026-05-06 00:49 | 25.29973 | -77.77563 | 3720 ft | 197 kts | 87° |
| 2026-05-06 00:50 | 25.29715 | -77.76093 | 3742 ft | 196 kts | 110° |
| 2026-05-06 00:50 | 25.29238 | -77.74672 | 3744 ft | 198 kts | 117° |
| 2026-05-06 00:50 | 25.28358 | -77.73517 | 3757 ft | 197 kts | 140° |
| 2026-05-06 00:50 | 25.27344 | -77.72477 | 3749 ft | 200 kts | 137° |
| 2026-05-06 00:51 | 25.26343 | -77.71394 | 3757 ft | 202 kts | 135° |
| 2026-05-06 00:51 | 25.25383 | -77.70258 | 3762 ft | 203 kts | 134° |
| 2026-05-06 00:51 | 25.24417 | -77.69123 | 3764 ft | 203 kts | 135° |
| 2026-05-06 00:51 | 25.23450 | -77.68008 | 3741 ft | 197 kts | 135° |
| 2026-05-06 00:52 | 25.22502 | -77.66929 | 3735 ft | 197 kts | 135° |
| 2026-05-06 00:52 | 25.21536 | -77.65827 | 3679 ft | 201 kts | 136° |
| 2026-05-06 00:52 | 25.20555 | -77.64720 | 3604 ft | 202 kts | 136° |
| 2026-05-06 00:52 | 25.19567 | -77.63615 | 3512 ft | 202 kts | 136° |
| 2026-05-06 00:53 | 25.18592 | -77.62527 | 3416 ft | 198 kts | 136° |
| 2026-05-06 00:53 | 25.17636 | -77.61461 | 3355 ft | 195 kts | 136° |
| 2026-05-06 00:53 | 25.16664 | -77.60378 | 3105 ft | 199 kts | 136° |
| 2026-05-06 00:53 | 25.15691 | -77.59292 | 2853 ft | 198 kts | 136° |
| 2026-05-06 00:54 | 25.14728 | -77.58219 | 2590 ft | 195 kts | 136° |
| 2026-05-06 00:54 | 25.13795 | -77.57177 | 2351 ft | 191 kts | 136° |
| 2026-05-06 00:54 | 25.12873 | -77.56149 | 2093 ft | 184 kts | 136° |
| 2026-05-06 00:54 | 25.12001 | -77.55175 | 1879 ft | 173 kts | 136° |
| 2026-05-06 00:55 | 25.11178 | -77.54257 | 1649 ft | 164 kts | 136° |
| 2026-05-06 00:55 | 25.10401 | -77.53389 | 1465 ft | 156 kts | 136° |
| 2026-05-06 00:55 | 25.09659 | -77.52562 | 1253 ft | 148 kts | 136° |
| 2026-05-06 00:55 | 25.08944 | -77.51765 | 1064 ft | 143 kts | 137° |
| 2026-05-06 00:56 | 25.08266 | -77.51008 | 886 ft | 138 kts | 137° |
| 2026-05-06 00:56 | 25.07595 | -77.50258 | 723 ft | 138 kts | 137° |
| 2026-05-06 00:56 | 25.06908 | -77.49491 | 547 ft | 141 kts | 137° |
| 2026-05-06 00:56 | 25.06228 | -77.48730 | 368 ft | 137 kts | 136° |
| 2026-05-06 00:57 | 25.05561 | -77.47973 | 132 ft | 137 kts | 136° |
| 2026-05-06 00:57 | 25.04913 | -77.47260 | 15 ft | 128 kts | 138° |
| 2026-05-06 00:57 | 25.04372 | -77.46665 | 12 ft | 73 kts | 134° |
| 2026-05-06 00:57 | 25.04230 | -77.46506 | 10 ft | 19 kts | 131° |
| 2026-05-06 00:58 | 25.04149 | -77.46371 | 9 ft | 21 kts | 112° |
| 2026-05-06 00:58 | 25.04109 | -77.46243 | 12 ft | 14 kts | 110° |
| 2026-05-06 00:58 | 25.04099 | -77.46207 | 12 ft | 0 kts | 105° |
| 2026-05-06 01:00 | 25.04100 | -77.46171 | 11 ft | 11 kts | 76° |
| 2026-05-06 01:00 | 25.04154 | -77.46158 | 11 ft | 12 kts | 319° |
| 2026-05-06 01:00 | 25.04216 | -77.46230 | 11 ft | 13 kts | 314° |
| 2026-05-06 01:00 | 25.04279 | -77.46301 | 12 ft | 13 kts | 314° |
| 2026-05-06 01:01 | 25.04341 | -77.46370 | 12 ft | 12 kts | 315° |
| 2026-05-06 01:01 | 25.04401 | -77.46437 | 11 ft | 12 kts | 315° |
| 2026-05-06 01:01 | 25.04464 | -77.46507 | 11 ft | 14 kts | 315° |
| 2026-05-06 01:01 | 25.04532 | -77.46582 | 11 ft | 13 kts | 314° |
| 2026-05-06 01:02 | 25.04595 | -77.46654 | 13 ft | 13 kts | 314° |
| 2026-05-06 01:02 | 25.04653 | -77.46718 | 11 ft | 6 kts | 315° |
| 2026-05-06 01:02 | 25.04664 | -77.46730 | 11 ft | 2 kts | 317° |
| 2026-05-06 01:02 | 25.04664 | -77.46731 | 11 ft | 0 kts | 317° |
| 2026-05-06 01:03 | 25.04665 | -77.46731 | 11 ft | 0 kts | 322° |
| 2026-05-06 01:03 | 25.04672 | -77.46733 | 11 ft | 3 kts | 347° |
| 2026-05-06 01:03 | 25.04718 | -77.46724 | 11 ft | 10 kts | 23° |
| 2026-05-06 01:04 | 25.04777 | -77.46700 | 11 ft | 8 kts | 340° |
| 2026-05-06 01:04 | 25.04804 | -77.46729 | 12 ft | 2 kts | 311° |
| 2026-05-06 01:04 | 25.04807 | -77.46732 | 12 ft | 0 kts | 311° |